sensor_id;sensor_type;location;lat;lon;timestamp;temperature;humidity
48604;DHT22;32708;51.212;6.788;2024-03-06T00:02:13;7.50;99.90
48604;DHT22;32708;51.212;6.788;2024-03-06T00:04:40;7.50;99.90
48604;DHT22;32708;51.212;6.788;2024-03-06T00:07:06;7.90;99.90
48604;DHT22;32708;51.212;6.788;2024-03-06T00:09:32;8.00;99.90
48604;DHT22;32708;51.212;6.788;2024-03-06T00:11:59;7.40;99.90
48604;DHT22;32708;51.212;6.788;2024-03-06T00:14:26;7.40;99.90
48604;DHT22;32708;51.212;6.788;2024-03-06T00:16:55;7.40;99.90
48604;DHT22;32708;51.212;6.788;2024-03-06T00:19:22;7.40;99.90
48604;DHT22;32708;51.212;6.788;2024-03-06T00:21:49;7.40;99.90
48604;DHT22;32708;51.212;6.788;2024-03-06T00:24:16;7.40;99.90
48604;DHT22;32708;51.212;6.788;2024-03-06T00:26:44;7.30;99.90
48604;DHT22;32708;51.212;6.788;2024-03-06T00:29:12;7.20;99.90
48604;DHT22;32708;51.212;6.788;2024-03-06T00:31:45;7.30;99.90
48604;DHT22;32708;51.212;6.788;2024-03-06T00:34:13;7.20;99.90
48604;DHT22;32708;51.212;6.788;2024-03-06T00:36:44;7.20;99.90
48604;DHT22;32708;51.212;6.788;2024-03-06T00:39:11;7.20;99.90
48604;DHT22;32708;51.212;6.788;2024-03-06T00:41:40;7.30;99.90
48604;DHT22;32708;51.212;6.788;2024-03-06T00:44:08;7.20;99.90
48604;DHT22;32708;51.212;6.788;2024-03-06T00:46:34;7.10;99.90
48604;DHT22;32708;51.212;6.788;2024-03-06T00:49:00;7.50;99.90
48604;DHT22;32708;51.212;6.788;2024-03-06T00:51:27;7.20;99.90
48604;DHT22;32708;51.212;6.788;2024-03-06T00:53:53;7.20;99.90
48604;DHT22;32708;51.212;6.788;2024-03-06T00:56:19;7.20;99.90
48604;DHT22;32708;51.212;6.788;2024-03-06T00:58:46;7.90;99.90
48604;DHT22;32708;51.212;6.788;2024-03-06T01:01:13;7.30;99.90
48604;DHT22;32708;51.212;6.788;2024-03-06T01:03:39;7.20;99.90
48604;DHT22;32708;51.212;6.788;2024-03-06T01:06:05;7.20;99.90
48604;DHT22;32708;51.212;6.788;2024-03-06T01:08:31;6.90;99.90
48604;DHT22;32708;51.212;6.788;2024-03-06T01:10:57;7.00;99.90
48604;DHT22;32708;51.212;6.788;2024-03-06T01:13:24;6.90;99.90
48604;DHT22;32708;51.212;6.788;2024-03-06T01:15:50;7.00;99.90
48604;DHT22;32708;51.212;6.788;2024-03-06T01:18:16;6.80;99.90
48604;DHT22;32708;51.212;6.788;2024-03-06T01:20:42;7.50;99.90
48604;DHT22;32708;51.212;6.788;2024-03-06T01:23:08;6.90;99.90
48604;DHT22;32708;51.212;6.788;2024-03-06T01:25:34;6.90;99.90
48604;DHT22;32708;51.212;6.788;2024-03-06T01:28:02;7.50;99.90
48604;DHT22;32708;51.212;6.788;2024-03-06T01:37:37;6.80;99.90
48604;DHT22;32708;51.212;6.788;2024-03-06T01:40:06;7.50;99.90
48604;DHT22;32708;51.212;6.788;2024-03-06T01:42:33;6.80;99.90
48604;DHT22;32708;51.212;6.788;2024-03-06T01:44:59;6.80;99.90
48604;DHT22;32708;51.212;6.788;2024-03-06T01:47:25;6.80;99.90
48604;DHT22;32708;51.212;6.788;2024-03-06T01:49:52;6.90;99.90
48604;DHT22;32708;51.212;6.788;2024-03-06T01:52:19;6.80;99.90
48604;DHT22;32708;51.212;6.788;2024-03-06T01:54:48;6.90;99.90
48604;DHT22;32708;51.212;6.788;2024-03-06T01:57:17;7.50;99.90
48604;DHT22;32708;51.212;6.788;2024-03-06T01:59:45;6.80;99.90
48604;DHT22;32708;51.212;6.788;2024-03-06T02:02:12;6.80;99.90
48604;DHT22;32708;51.212;6.788;2024-03-06T02:04:38;6.60;99.90
48604;DHT22;32708;51.212;6.788;2024-03-06T02:07:09;6.50;99.90
48604;DHT22;32708;51.212;6.788;2024-03-06T02:09:37;6.50;99.90
48604;DHT22;32708;51.212;6.788;2024-03-06T02:12:06;6.40;99.90
48604;DHT22;32708;51.212;6.788;2024-03-06T02:14:37;6.40;99.90
48604;DHT22;32708;51.212;6.788;2024-03-06T02:17:03;7.10;99.90
48604;DHT22;32708;51.212;6.788;2024-03-06T02:19:43;7.20;99.90
48604;DHT22;32708;51.212;6.788;2024-03-06T02:22:10;6.60;99.90
48604;DHT22;32708;51.212;6.788;2024-03-06T02:24:37;7.20;99.90
48604;DHT22;32708;51.212;6.788;2024-03-06T02:27:08;6.50;99.90
48604;DHT22;32708;51.212;6.788;2024-03-06T02:29:34;6.80;99.90
48604;DHT22;32708;51.212;6.788;2024-03-06T02:32:01;6.60;99.90
48604;DHT22;32708;51.212;6.788;2024-03-06T02:34:28;7.20;99.90
48604;DHT22;32708;51.212;6.788;2024-03-06T02:36:56;6.80;99.90
48604;DHT22;32708;51.212;6.788;2024-03-06T02:39:22;6.60;99.90
48604;DHT22;32708;51.212;6.788;2024-03-06T02:41:48;6.70;99.90
48604;DHT22;32708;51.212;6.788;2024-03-06T02:44:15;6.70;99.90
48604;DHT22;32708;51.212;6.788;2024-03-06T02:46:47;6.70;99.90
48604;DHT22;32708;51.212;6.788;2024-03-06T02:49:15;6.60;99.90
48604;DHT22;32708;51.212;6.788;2024-03-06T02:51:43;6.80;99.90
48604;DHT22;32708;51.212;6.788;2024-03-06T02:54:09;6.90;99.90
48604;DHT22;32708;51.212;6.788;2024-03-06T02:56:35;7.30;99.90
48604;DHT22;32708;51.212;6.788;2024-03-06T02:59:02;6.70;99.90
48604;DHT22;32708;51.212;6.788;2024-03-06T03:01:29;6.80;99.90
48604;DHT22;32708;51.212;6.788;2024-03-06T03:03:56;6.80;99.90
48604;DHT22;32708;51.212;6.788;2024-03-06T03:06:23;6.90;99.90
48604;DHT22;32708;51.212;6.788;2024-03-06T03:08:49;7.00;99.90
48604;DHT22;32708;51.212;6.788;2024-03-06T03:11:16;7.10;99.90
48604;DHT22;32708;51.212;6.788;2024-03-06T03:13:42;6.90;99.90
48604;DHT22;32708;51.212;6.788;2024-03-06T03:16:16;7.30;99.90
48604;DHT22;32708;51.212;6.788;2024-03-06T03:18:43;6.80;99.90
48604;DHT22;32708;51.212;6.788;2024-03-06T03:21:10;6.80;99.90
48604;DHT22;32708;51.212;6.788;2024-03-06T03:23:37;6.80;99.90
48604;DHT22;32708;51.212;6.788;2024-03-06T03:26:07;6.70;99.90
48604;DHT22;32708;51.212;6.788;2024-03-06T03:28:39;6.60;99.90
48604;DHT22;32708;51.212;6.788;2024-03-06T03:31:09;6.60;99.90
48604;DHT22;32708;51.212;6.788;2024-03-06T03:33:39;7.20;99.90
48604;DHT22;32708;51.212;6.788;2024-03-06T03:36:06;6.70;99.90
48604;DHT22;32708;51.212;6.788;2024-03-06T03:38:34;6.70;99.90
48604;DHT22;32708;51.212;6.788;2024-03-06T03:41:11;6.70;99.90
48604;DHT22;32708;51.212;6.788;2024-03-06T03:43:39;6.90;99.90
48604;DHT22;32708;51.212;6.788;2024-03-06T03:46:06;6.80;99.90
48604;DHT22;32708;51.212;6.788;2024-03-06T03:48:33;6.80;99.90
48604;DHT22;32708;51.212;6.788;2024-03-06T03:51:03;6.80;99.90
48604;DHT22;32708;51.212;6.788;2024-03-06T03:53:33;6.80;99.90
48604;DHT22;32708;51.212;6.788;2024-03-06T03:56:01;6.80;99.90
48604;DHT22;32708;51.212;6.788;2024-03-06T03:58:29;6.80;99.90
48604;DHT22;32708;51.212;6.788;2024-03-06T04:00:55;7.30;99.90
48604;DHT22;32708;51.212;6.788;2024-03-06T04:03:22;6.80;99.90
48604;DHT22;32708;51.212;6.788;2024-03-06T04:05:49;6.60;99.90
48604;DHT22;32708;51.212;6.788;2024-03-06T04:08:15;6.70;99.90
48604;DHT22;32708;51.212;6.788;2024-03-06T04:10:43;6.60;99.90
48604;DHT22;32708;51.212;6.788;2024-03-06T04:13:14;6.60;99.90
48604;DHT22;32708;51.212;6.788;2024-03-06T04:15:41;6.60;99.90
48604;DHT22;32708;51.212;6.788;2024-03-06T04:18:08;6.50;99.90
48604;DHT22;32708;51.212;6.788;2024-03-06T04:20:34;7.10;99.90
48604;DHT22;32708;51.212;6.788;2024-03-06T04:23:01;6.60;99.90
48604;DHT22;32708;51.212;6.788;2024-03-06T04:25:28;6.50;99.90
48604;DHT22;32708;51.212;6.788;2024-03-06T04:27:54;6.70;99.90
48604;DHT22;32708;51.212;6.788;2024-03-06T04:30:20;6.50;99.90
48604;DHT22;32708;51.212;6.788;2024-03-06T04:32:47;6.40;99.90
48604;DHT22;32708;51.212;6.788;2024-03-06T04:35:16;6.50;99.90
48604;DHT22;32708;51.212;6.788;2024-03-06T04:37:48;6.50;99.90
48604;DHT22;32708;51.212;6.788;2024-03-06T04:40:14;6.50;99.90
48604;DHT22;32708;51.212;6.788;2024-03-06T04:42:46;6.50;99.90
48604;DHT22;32708;51.212;6.788;2024-03-06T04:45:16;6.40;99.90
48604;DHT22;32708;51.212;6.788;2024-03-06T04:47:43;6.50;99.90
48604;DHT22;32708;51.212;6.788;2024-03-06T04:50:10;6.60;99.90
48604;DHT22;32708;51.212;6.788;2024-03-06T04:52:38;6.70;99.90
48604;DHT22;32708;51.212;6.788;2024-03-06T04:55:05;6.70;99.90
48604;DHT22;32708;51.212;6.788;2024-03-06T04:57:34;6.70;99.90
48604;DHT22;32708;51.212;6.788;2024-03-06T05:00:00;6.60;99.90
48604;DHT22;32708;51.212;6.788;2024-03-06T05:02:30;6.70;99.90
48604;DHT22;32708;51.212;6.788;2024-03-06T05:04:56;6.80;99.90
48604;DHT22;32708;51.212;6.788;2024-03-06T05:07:22;6.80;99.90
48604;DHT22;32708;51.212;6.788;2024-03-06T05:09:48;6.80;99.90
48604;DHT22;32708;51.212;6.788;2024-03-06T05:12:15;6.80;99.90
48604;DHT22;32708;51.212;6.788;2024-03-06T05:14:41;6.80;99.90
48604;DHT22;32708;51.212;6.788;2024-03-06T05:17:07;7.00;99.90
48604;DHT22;32708;51.212;6.788;2024-03-06T05:19:36;7.00;99.90
48604;DHT22;32708;51.212;6.788;2024-03-06T05:22:03;6.90;99.90
48604;DHT22;32708;51.212;6.788;2024-03-06T05:24:29;6.90;99.90
48604;DHT22;32708;51.212;6.788;2024-03-06T05:26:56;6.90;99.90
48604;DHT22;32708;51.212;6.788;2024-03-06T05:29:22;6.80;99.90
48604;DHT22;32708;51.212;6.788;2024-03-06T05:31:48;6.80;99.90
48604;DHT22;32708;51.212;6.788;2024-03-06T05:34:14;6.80;99.90
48604;DHT22;32708;51.212;6.788;2024-03-06T05:36:41;6.70;99.90
48604;DHT22;32708;51.212;6.788;2024-03-06T05:39:10;6.90;99.90
48604;DHT22;32708;51.212;6.788;2024-03-06T05:41:39;6.70;99.90
48604;DHT22;32708;51.212;6.788;2024-03-06T05:44:28;6.70;99.90
48604;DHT22;32708;51.212;6.788;2024-03-06T05:46:56;6.80;99.90
48604;DHT22;32708;51.212;6.788;2024-03-06T05:49:27;7.10;99.90
48604;DHT22;32708;51.212;6.788;2024-03-06T05:51:54;6.90;99.90
48604;DHT22;32708;51.212;6.788;2024-03-06T05:54:21;7.60;99.90
48604;DHT22;32708;51.212;6.788;2024-03-06T05:56:49;7.10;99.90
48604;DHT22;32708;51.212;6.788;2024-03-06T05:59:18;7.20;99.90
48604;DHT22;32708;51.212;6.788;2024-03-06T06:02:28;7.10;99.90
48604;DHT22;32708;51.212;6.788;2024-03-06T06:04:54;7.50;99.90
48604;DHT22;32708;51.212;6.788;2024-03-06T06:07:21;7.70;99.90
48604;DHT22;32708;51.212;6.788;2024-03-06T06:09:47;7.20;99.90
48604;DHT22;32708;51.212;6.788;2024-03-06T06:12:13;7.10;99.90
48604;DHT22;32708;51.212;6.788;2024-03-06T06:14:40;7.20;99.90
48604;DHT22;32708;51.212;6.788;2024-03-06T06:17:06;7.10;99.90
48604;DHT22;32708;51.212;6.788;2024-03-06T06:19:32;7.80;99.90
48604;DHT22;32708;51.212;6.788;2024-03-06T06:21:58;7.30;99.90
48604;DHT22;32708;51.212;6.788;2024-03-06T06:24:28;7.40;99.90
48604;DHT22;32708;51.212;6.788;2024-03-06T06:26:54;7.50;99.90
48604;DHT22;32708;51.212;6.788;2024-03-06T06:29:20;7.50;99.90
48604;DHT22;32708;51.212;6.788;2024-03-06T06:31:47;7.50;99.90
48604;DHT22;32708;51.212;6.788;2024-03-06T06:34:13;7.40;99.90
48604;DHT22;32708;51.212;6.788;2024-03-06T06:36:44;7.40;99.90
48604;DHT22;32708;51.212;6.788;2024-03-06T06:39:11;7.40;99.90
48604;DHT22;32708;51.212;6.788;2024-03-06T06:41:38;7.40;99.90
48604;DHT22;32708;51.212;6.788;2024-03-06T06:44:04;7.40;99.90
48604;DHT22;32708;51.212;6.788;2024-03-06T06:46:30;7.40;99.90
48604;DHT22;32708;51.212;6.788;2024-03-06T06:48:57;7.50;99.90
48604;DHT22;32708;51.212;6.788;2024-03-06T06:51:23;7.40;99.90
48604;DHT22;32708;51.212;6.788;2024-03-06T06:53:51;7.40;99.90
48604;DHT22;32708;51.212;6.788;2024-03-06T06:56:17;7.50;99.90
48604;DHT22;32708;51.212;6.788;2024-03-06T06:58:43;7.40;99.90
48604;DHT22;32708;51.212;6.788;2024-03-06T07:01:09;8.10;99.90
48604;DHT22;32708;51.212;6.788;2024-03-06T07:03:35;7.50;99.90
48604;DHT22;32708;51.212;6.788;2024-03-06T07:06:02;7.60;99.90
48604;DHT22;32708;51.212;6.788;2024-03-06T07:08:31;7.70;99.90
48604;DHT22;32708;51.212;6.788;2024-03-06T07:10:58;7.70;99.90
48604;DHT22;32708;51.212;6.788;2024-03-06T07:13:24;8.00;99.90
48604;DHT22;32708;51.212;6.788;2024-03-06T07:15:51;8.00;99.90
48604;DHT22;32708;51.212;6.788;2024-03-06T07:18:18;7.60;99.90
48604;DHT22;32708;51.212;6.788;2024-03-06T07:20:56;8.00;99.90
48604;DHT22;32708;51.212;6.788;2024-03-06T07:23:41;8.00;99.90
48604;DHT22;32708;51.212;6.788;2024-03-06T07:26:07;8.00;99.90
48604;DHT22;32708;51.212;6.788;2024-03-06T07:28:33;8.00;99.90
48604;DHT22;32708;51.212;6.788;2024-03-06T07:31:00;8.10;99.90
48604;DHT22;32708;51.212;6.788;2024-03-06T07:33:45;8.00;99.90
48604;DHT22;32708;51.212;6.788;2024-03-06T07:36:11;8.00;99.90
48604;DHT22;32708;51.212;6.788;2024-03-06T07:38:37;8.10;99.90
48604;DHT22;32708;51.212;6.788;2024-03-06T07:41:03;8.10;99.90
48604;DHT22;32708;51.212;6.788;2024-03-06T07:43:30;8.20;99.90
48604;DHT22;32708;51.212;6.788;2024-03-06T07:45:56;8.20;99.90
48604;DHT22;32708;51.212;6.788;2024-03-06T07:48:22;8.20;99.90
48604;DHT22;32708;51.212;6.788;2024-03-06T07:50:49;8.20;99.90
48604;DHT22;32708;51.212;6.788;2024-03-06T07:53:15;8.30;99.90
48604;DHT22;32708;51.212;6.788;2024-03-06T07:55:42;8.20;99.90
48604;DHT22;32708;51.212;6.788;2024-03-06T07:58:13;8.30;99.90
48604;DHT22;32708;51.212;6.788;2024-03-06T08:00:42;8.30;99.90
48604;DHT22;32708;51.212;6.788;2024-03-06T08:03:08;8.40;99.90
48604;DHT22;32708;51.212;6.788;2024-03-06T08:05:34;8.20;99.90
48604;DHT22;32708;51.212;6.788;2024-03-06T08:08:00;8.40;99.90
48604;DHT22;32708;51.212;6.788;2024-03-06T08:10:29;8.30;99.90
48604;DHT22;32708;51.212;6.788;2024-03-06T08:12:55;8.50;99.90
48604;DHT22;32708;51.212;6.788;2024-03-06T08:15:21;8.50;99.90
48604;DHT22;32708;51.212;6.788;2024-03-06T08:17:49;8.50;99.90
48604;DHT22;32708;51.212;6.788;2024-03-06T08:20:17;8.60;99.90
48604;DHT22;32708;51.212;6.788;2024-03-06T08:22:43;8.60;99.90
48604;DHT22;32708;51.212;6.788;2024-03-06T08:25:11;9.20;99.90
48604;DHT22;32708;51.212;6.788;2024-03-06T08:27:42;8.70;99.90
48604;DHT22;32708;51.212;6.788;2024-03-06T08:30:09;8.70;99.90
48604;DHT22;32708;51.212;6.788;2024-03-06T08:32:36;8.80;99.90
48604;DHT22;32708;51.212;6.788;2024-03-06T08:35:09;8.80;99.90
48604;DHT22;32708;51.212;6.788;2024-03-06T08:37:41;8.90;99.90
48604;DHT22;32708;51.212;6.788;2024-03-06T08:40:08;9.00;99.90
48604;DHT22;32708;51.212;6.788;2024-03-06T08:42:44;9.00;99.90
48604;DHT22;32708;51.212;6.788;2024-03-06T08:45:11;9.30;99.90
48604;DHT22;32708;51.212;6.788;2024-03-06T08:47:37;10.00;99.90
48604;DHT22;32708;51.212;6.788;2024-03-06T08:50:04;9.30;99.90
48604;DHT22;32708;51.212;6.788;2024-03-06T08:52:31;9.40;99.90
48604;DHT22;32708;51.212;6.788;2024-03-06T08:54:58;9.30;99.90
48604;DHT22;32708;51.212;6.788;2024-03-06T08:57:24;9.20;99.90
48604;DHT22;32708;51.212;6.788;2024-03-06T08:59:54;9.20;99.90
48604;DHT22;32708;51.212;6.788;2024-03-06T09:02:21;9.70;99.90
48604;DHT22;32708;51.212;6.788;2024-03-06T09:04:47;9.90;99.90
48604;DHT22;32708;51.212;6.788;2024-03-06T09:07:14;10.00;99.90
48604;DHT22;32708;51.212;6.788;2024-03-06T09:09:41;9.70;99.90
48604;DHT22;32708;51.212;6.788;2024-03-06T09:12:13;9.50;99.90
48604;DHT22;32708;51.212;6.788;2024-03-06T09:14:43;9.70;99.90
48604;DHT22;32708;51.212;6.788;2024-03-06T09:17:18;10.00;99.90
48604;DHT22;32708;51.212;6.788;2024-03-06T09:19:44;10.40;99.90
48604;DHT22;32708;51.212;6.788;2024-03-06T09:22:10;10.80;99.90
48604;DHT22;32708;51.212;6.788;2024-03-06T09:24:47;9.50;99.90
48604;DHT22;32708;51.212;6.788;2024-03-06T09:27:16;9.60;99.90
48604;DHT22;32708;51.212;6.788;2024-03-06T09:29:45;9.70;99.90
48604;DHT22;32708;51.212;6.788;2024-03-06T09:32:13;9.70;99.90
48604;DHT22;32708;51.212;6.788;2024-03-06T09:34:41;10.00;99.90
48604;DHT22;32708;51.212;6.788;2024-03-06T09:37:08;10.20;99.90
48604;DHT22;32708;51.212;6.788;2024-03-06T09:39:35;10.20;99.90
48604;DHT22;32708;51.212;6.788;2024-03-06T09:42:01;10.20;99.90
48604;DHT22;32708;51.212;6.788;2024-03-06T09:44:28;10.40;99.90
48604;DHT22;32708;51.212;6.788;2024-03-06T09:46:54;10.50;99.90
48604;DHT22;32708;51.212;6.788;2024-03-06T09:49:29;10.50;99.90
48604;DHT22;32708;51.212;6.788;2024-03-06T09:51:58;10.50;99.90
48604;DHT22;32708;51.212;6.788;2024-03-06T09:54:29;10.30;99.90
48604;DHT22;32708;51.212;6.788;2024-03-06T09:56:59;10.70;99.90
48604;DHT22;32708;51.212;6.788;2024-03-06T09:59:27;11.20;99.90
48604;DHT22;32708;51.212;6.788;2024-03-06T10:01:55;11.20;99.90
48604;DHT22;32708;51.212;6.788;2024-03-06T10:04:27;11.40;99.90
48604;DHT22;32708;51.212;6.788;2024-03-06T10:06:56;10.80;99.90
48604;DHT22;32708;51.212;6.788;2024-03-06T10:09:26;10.80;99.90
48604;DHT22;32708;51.212;6.788;2024-03-06T10:11:53;10.90;99.90
48604;DHT22;32708;51.212;6.788;2024-03-06T10:14:24;11.00;99.90
48604;DHT22;32708;51.212;6.788;2024-03-06T10:16:59;10.90;99.90
48604;DHT22;32708;51.212;6.788;2024-03-06T10:19:28;11.00;99.90
48604;DHT22;32708;51.212;6.788;2024-03-06T10:21:57;11.30;99.90
48604;DHT22;32708;51.212;6.788;2024-03-06T10:24:28;11.50;99.90
48604;DHT22;32708;51.212;6.788;2024-03-06T10:26:57;12.10;95.10
48604;DHT22;32708;51.212;6.788;2024-03-06T10:29:26;11.80;94.30
48604;DHT22;32708;51.212;6.788;2024-03-06T10:31:57;11.40;99.90
48604;DHT22;32708;51.212;6.788;2024-03-06T10:34:26;11.20;99.90
48604;DHT22;32708;51.212;6.788;2024-03-06T10:36:59;11.20;99.90
48604;DHT22;32708;51.212;6.788;2024-03-06T10:39:42;11.60;99.90
48604;DHT22;32708;51.212;6.788;2024-03-06T10:42:13;12.00;69.20
48604;DHT22;32708;51.212;6.788;2024-03-06T10:44:51;11.20;68.60
48604;DHT22;32708;51.212;6.788;2024-03-06T10:47:22;11.80;34.30
48604;DHT22;32708;51.212;6.788;2024-03-06T10:49:53;12.50;1.00
48604;DHT22;32708;51.212;6.788;2024-03-06T10:52:21;12.80;1.00
48604;DHT22;32708;51.212;6.788;2024-03-06T10:54:49;12.10;1.00
48604;DHT22;32708;51.212;6.788;2024-03-06T10:57:18;11.80;50.60
48604;DHT22;32708;51.212;6.788;2024-03-06T10:59:46;12.00;1.00
48604;DHT22;32708;51.212;6.788;2024-03-06T11:02:13;12.20;1.00
48604;DHT22;32708;51.212;6.788;2024-03-06T11:04:40;12.10;1.00
48604;DHT22;32708;51.212;6.788;2024-03-06T11:07:09;12.20;1.00
48604;DHT22;32708;51.212;6.788;2024-03-06T11:09:36;12.10;1.00
48604;DHT22;32708;51.212;6.788;2024-03-06T11:12:07;12.30;1.00
48604;DHT22;32708;51.212;6.788;2024-03-06T11:14:37;11.60;15.40
48604;DHT22;32708;51.212;6.788;2024-03-06T11:17:11;11.30;65.90
48604;DHT22;32708;51.212;6.788;2024-03-06T11:20:13;11.60;44.80
48604;DHT22;32708;51.212;6.788;2024-03-06T11:28:20;12.20;1.00
48604;DHT22;32708;51.212;6.788;2024-03-06T11:31:05;11.60;25.40
48604;DHT22;32708;51.212;6.788;2024-03-06T11:33:43;11.50;37.40
48604;DHT22;32708;51.212;6.788;2024-03-06T11:36:25;11.80;24.40
48604;DHT22;32708;51.212;6.788;2024-03-06T11:38:58;11.80;1.00
48604;DHT22;32708;51.212;6.788;2024-03-06T11:44:15;11.50;1.00
48604;DHT22;32708;51.212;6.788;2024-03-06T11:49:16;11.50;8.30
48604;DHT22;32708;51.212;6.788;2024-03-06T11:51:47;11.80;1.00
48604;DHT22;32708;51.212;6.788;2024-03-06T11:54:15;11.60;1.00
48604;DHT22;32708;51.212;6.788;2024-03-06T11:56:45;11.70;1.00
48604;DHT22;32708;51.212;6.788;2024-03-06T11:59:14;11.80;1.00
48604;DHT22;32708;51.212;6.788;2024-03-06T12:01:41;11.60;1.00
48604;DHT22;32708;51.212;6.788;2024-03-06T12:04:08;11.70;1.00
48604;DHT22;32708;51.212;6.788;2024-03-06T12:06:34;11.80;1.00
48604;DHT22;32708;51.212;6.788;2024-03-06T12:09:01;11.90;99.90
48604;DHT22;32708;51.212;6.788;2024-03-06T12:11:28;11.60;1.00
48604;DHT22;32708;51.212;6.788;2024-03-06T12:13:56;11.70;99.90
48604;DHT22;32708;51.212;6.788;2024-03-06T12:16:23;11.50;99.90
48604;DHT22;32708;51.212;6.788;2024-03-06T12:18:59;11.60;1.00
48604;DHT22;32708;51.212;6.788;2024-03-06T12:21:31;11.70;99.90
48604;DHT22;32708;51.212;6.788;2024-03-06T12:24:05;12.00;99.90
48604;DHT22;32708;51.212;6.788;2024-03-06T12:26:32;12.50;92.10
48604;DHT22;32708;51.212;6.788;2024-03-06T12:29:07;11.90;99.90
48604;DHT22;32708;51.212;6.788;2024-03-06T12:31:38;11.80;99.90
48604;DHT22;32708;51.212;6.788;2024-03-06T12:34:13;12.30;99.90
48604;DHT22;32708;51.212;6.788;2024-03-06T12:36:44;12.60;99.90
48604;DHT22;32708;51.212;6.788;2024-03-06T12:39:16;12.80;99.90
48604;DHT22;32708;51.212;6.788;2024-03-06T12:41:47;12.80;99.90
48604;DHT22;32708;51.212;6.788;2024-03-06T12:44:13;12.70;99.90
48604;DHT22;32708;51.212;6.788;2024-03-06T12:46:41;12.40;99.90
48604;DHT22;32708;51.212;6.788;2024-03-06T12:49:07;12.50;1.00
48604;DHT22;32708;51.212;6.788;2024-03-06T12:51:34;12.60;99.90
48604;DHT22;32708;51.212;6.788;2024-03-06T12:54:03;12.40;44.30
48604;DHT22;32708;51.212;6.788;2024-03-06T12:56:30;12.20;99.90
48604;DHT22;32708;51.212;6.788;2024-03-06T12:58:56;12.50;99.90
48604;DHT22;32708;51.212;6.788;2024-03-06T13:01:22;12.40;99.90
48604;DHT22;32708;51.212;6.788;2024-03-06T13:03:48;12.10;99.90
48604;DHT22;32708;51.212;6.788;2024-03-06T13:06:15;12.50;1.00
48604;DHT22;32708;51.212;6.788;2024-03-06T13:08:41;12.30;99.90
48604;DHT22;32708;51.212;6.788;2024-03-06T13:11:08;12.70;99.90
48604;DHT22;32708;51.212;6.788;2024-03-06T13:13:37;12.90;54.70
48604;DHT22;32708;51.212;6.788;2024-03-06T13:16:04;12.80;99.90
48604;DHT22;32708;51.212;6.788;2024-03-06T13:18:30;12.80;99.90
48604;DHT22;32708;51.212;6.788;2024-03-06T13:20:57;12.90;67.50
48604;DHT22;32708;51.212;6.788;2024-03-06T13:23:26;12.80;55.30
48604;DHT22;32708;51.212;6.788;2024-03-06T13:25:52;12.60;99.90
48604;DHT22;32708;51.212;6.788;2024-03-06T13:28:18;12.40;99.90
48604;DHT22;32708;51.212;6.788;2024-03-06T13:30:46;12.40;99.90
48604;DHT22;32708;51.212;6.788;2024-03-06T13:33:13;12.60;1.00
48604;DHT22;32708;51.212;6.788;2024-03-06T13:35:39;12.70;99.90
48604;DHT22;32708;51.212;6.788;2024-03-06T13:38:05;12.90;99.90
48604;DHT22;32708;51.212;6.788;2024-03-06T13:40:32;12.90;99.90
48604;DHT22;32708;51.212;6.788;2024-03-06T13:43:00;12.70;99.90
48604;DHT22;32708;51.212;6.788;2024-03-06T13:45:26;12.60;99.90
48604;DHT22;32708;51.212;6.788;2024-03-06T13:47:52;13.10;80.40
48604;DHT22;32708;51.212;6.788;2024-03-06T13:50:19;12.90;33.30
48604;DHT22;32708;51.212;6.788;2024-03-06T13:52:45;12.90;1.00
48604;DHT22;32708;51.212;6.788;2024-03-06T13:55:11;12.90;4.20
48604;DHT22;32708;51.212;6.788;2024-03-06T13:57:39;12.60;12.40
48604;DHT22;32708;51.212;6.788;2024-03-06T14:00:09;12.70;46.80
48604;DHT22;32708;51.212;6.788;2024-03-06T14:02:43;12.90;60.00
48604;DHT22;32708;51.212;6.788;2024-03-06T14:05:13;13.30;1.00
48604;DHT22;32708;51.212;6.788;2024-03-06T14:07:45;13.20;99.90
48604;DHT22;32708;51.212;6.788;2024-03-06T14:10:11;13.30;99.90
48604;DHT22;32708;51.212;6.788;2024-03-06T14:12:38;13.40;99.90
48604;DHT22;32708;51.212;6.788;2024-03-06T14:15:06;13.40;99.90
48604;DHT22;32708;51.212;6.788;2024-03-06T14:17:38;13.40;99.90
48604;DHT22;32708;51.212;6.788;2024-03-06T14:20:05;13.40;99.90
48604;DHT22;32708;51.212;6.788;2024-03-06T14:22:32;13.60;99.90
48604;DHT22;32708;51.212;6.788;2024-03-06T14:24:58;13.80;99.90
48604;DHT22;32708;51.212;6.788;2024-03-06T14:27:24;13.80;99.90
48604;DHT22;32708;51.212;6.788;2024-03-06T14:29:50;13.60;99.90
48604;DHT22;32708;51.212;6.788;2024-03-06T14:32:19;13.60;99.90
48604;DHT22;32708;51.212;6.788;2024-03-06T14:34:46;13.70;99.90
48604;DHT22;32708;51.212;6.788;2024-03-06T14:37:13;13.40;99.90
48604;DHT22;32708;51.212;6.788;2024-03-06T14:39:39;13.20;99.90
48604;DHT22;32708;51.212;6.788;2024-03-06T14:42:08;13.10;9.20
48604;DHT22;32708;51.212;6.788;2024-03-06T14:44:37;12.80;99.90
48604;DHT22;32708;51.212;6.788;2024-03-06T14:47:03;12.30;99.90
48604;DHT22;32708;51.212;6.788;2024-03-06T14:49:31;12.50;99.90
48604;DHT22;32708;51.212;6.788;2024-03-06T14:51:58;12.70;99.90
48604;DHT22;32708;51.212;6.788;2024-03-06T14:54:33;12.30;99.90
48604;DHT22;32708;51.212;6.788;2024-03-06T14:57:09;12.60;1.00
48604;DHT22;32708;51.212;6.788;2024-03-06T14:59:35;12.20;99.90
48604;DHT22;32708;51.212;6.788;2024-03-06T15:02:01;12.20;99.90
48604;DHT22;32708;51.212;6.788;2024-03-06T15:04:29;12.20;99.90
48604;DHT22;32708;51.212;6.788;2024-03-06T15:06:56;12.30;99.90
48604;DHT22;32708;51.212;6.788;2024-03-06T15:09:22;12.30;23.50
48604;DHT22;32708;51.212;6.788;2024-03-06T15:11:52;12.40;99.90
48604;DHT22;32708;51.212;6.788;2024-03-06T15:14:19;12.50;99.90
48604;DHT22;32708;51.212;6.788;2024-03-06T15:16:46;12.30;48.70
48604;DHT22;32708;51.212;6.788;2024-03-06T15:19:12;12.40;1.00
48604;DHT22;32708;51.212;6.788;2024-03-06T15:21:41;12.10;99.90
48604;DHT22;32708;51.212;6.788;2024-03-06T15:24:08;12.10;1.00
48604;DHT22;32708;51.212;6.788;2024-03-06T15:26:34;12.10;1.00
48604;DHT22;32708;51.212;6.788;2024-03-06T15:29:01;12.20;1.00
48604;DHT22;32708;51.212;6.788;2024-03-06T15:31:30;12.30;99.90
48604;DHT22;32708;51.212;6.788;2024-03-06T15:34:00;12.30;99.90
48604;DHT22;32708;51.212;6.788;2024-03-06T15:36:30;12.30;99.90
48604;DHT22;32708;51.212;6.788;2024-03-06T15:38:57;12.20;99.90
48604;DHT22;32708;51.212;6.788;2024-03-06T15:41:24;12.00;1.00
48604;DHT22;32708;51.212;6.788;2024-03-06T15:43:50;12.10;92.20
48604;DHT22;32708;51.212;6.788;2024-03-06T15:46:17;12.00;1.00
48604;DHT22;32708;51.212;6.788;2024-03-06T15:48:51;12.30;99.90
48604;DHT22;32708;51.212;6.788;2024-03-06T15:51:20;12.20;55.70
48604;DHT22;32708;51.212;6.788;2024-03-06T15:53:46;12.10;99.90
48604;DHT22;32708;51.212;6.788;2024-03-06T15:56:12;12.20;22.80
48604;DHT22;32708;51.212;6.788;2024-03-06T15:58:40;12.30;99.90
48604;DHT22;32708;51.212;6.788;2024-03-06T16:01:06;12.30;1.00
48604;DHT22;32708;51.212;6.788;2024-03-06T16:03:48;12.30;99.90
48604;DHT22;32708;51.212;6.788;2024-03-06T16:06:24;12.20;99.90